Incline Creek, Nevada Weather observations

Data are for observation ending at time listed.
 Day   Time    Ave.   Ave.  Ave.  Vector   Max.   Stn.    Total    Solar   Ave.   Snow 
  of    of     Air    Rel.  Wind   Wind    Wind   Baro.  Precip.   Rad.    Soil   Depth
Year   Day     Temp.  Hum.  Speed  Dir.    Gust   Pres.                    Temp.       
2015   (PST)    F      %     mph   deg.    mph     mb.     in.     W/m2     F      in. 
---------------------------------------------------------------------------------------  
 113   17:50   47.0    63    3.7   107     10.9   999.0    0.00      86    999.0    0.0
 113   18:00   46.7    66    3.3    95      8.6   999.0    0.00      48    999.0    0.0
 113   18:10   46.5    61    4.0   111      8.4   999.0    0.00      31    999.0    0.0
 113   18:20   46.0    62    3.3   108      7.3   999.0    0.00      22    999.0    0.0
 113   18:30   45.4    65    2.1   123      7.2   999.0    0.00      14    999.0    0.0
 113   18:40   44.9    65    1.9    81      5.2   999.0    0.00       7    999.0    0.0
 113   18:50   44.1    69    0.8   356      2.9   999.0    0.00       2    999.0    0.0
 113   19:00   43.4    71    1.7   359      4.1   999.0    0.00       0    999.0    0.0
 113   19:10   42.4    76    1.7   334      4.7   999.0    0.00       0    999.0    0.0
 113   19:20   42.0    76    1.5   314      3.1   999.0    0.00       0    999.0    0.0
 113   19:30   41.7    78    1.7   314      3.2   999.0    0.00       0    999.0    0.0
 113   19:40   41.3    81    1.9   341      4.3   999.0    0.00       0    999.0    0.0
 113   19:50   41.6    80    1.5   315      3.1   999.0    0.00       0    999.0    0.0
 113   20:00   42.0    79    0.7    87      2.6   999.0    0.00       0    999.0    0.0
 113   20:10   42.8    78    1.6    62      4.3   999.0    0.00       0    999.0    0.0
 113   20:20   43.2    80    1.5    89      3.2   999.0    0.00       0    999.0    0.0
 113   20:30   42.8    81    1.3    22      2.3   999.0    0.00       0    999.0    0.0
 113   20:40   42.3    83    1.6    74      3.9   999.0    0.00       0    999.0    0.0
 113   20:50   42.9    81    2.7   115      7.2   999.0    0.00       0    999.0    0.0
 113   21:00   43.2    80    1.7    88      4.5   999.0    0.00       0    999.0    0.0
 113   21:10   43.2    80    2.7   114      5.6   999.0    0.00       0    999.0    0.0
 113   21:20   43.1    78    4.2   135      8.5   999.0    0.00       0    999.0    0.0
 113   21:30   42.6    79    6.1   120     14.2   999.0    0.00       0    999.0    0.0
 113   21:40   41.6    80    1.9   124      7.6   999.0    0.00       0    999.0    0.0
 113   21:50   41.3    81    1.1    13      2.2   999.0    0.00       0    999.0    0.0
 113   22:00   41.0    82    3.3   178      7.5   999.0    0.00       0    999.0    0.0
 113   22:10   40.8    79    4.8   156      8.7   999.0    0.00       0    999.0    0.0
 113   22:20   40.4    82    2.6   154      8.5   999.0    0.00       0    999.0    0.0
 113   22:30   39.7    87    1.9   105      8.6   999.0    0.00       0    999.0    0.0
 113   22:40   38.7    96    2.4    56      6.5   999.0    0.00       0    999.0    0.0
 113   22:50   37.9   101    2.4    83      5.2   999.0    0.00       0    999.0    0.0
 113   23:00   37.0   104    0.9    50      3.8   999.0    0.00       0    999.0    0.0
 113   23:10   36.4   104    0.8    74      2.6   999.0    0.00       0    999.0    0.0
 113   23:20   35.9   105    0.3    77      1.9   999.0    0.00       0    999.0    0.0
 113   23:30   35.7   105    0.2   315      1.4   999.0    0.00       0    999.0    0.0
 113   23:40   35.6   106    0.2    76      2.1   999.0    0.00       0    999.0    0.0
 113   23:50   35.6   107    0.6   172      1.9   999.0    0.00       0    999.0    0.0
 114    0:00   35.8   108    0.5   134      2.1   999.0    0.00       0    999.0    0.0
 114    0:10   36.0   108    1.8   143      3.7   999.0    0.00       0    999.0    0.0
 114    0:20   36.0   108    2.6   106      6.2   999.0    0.00       0    999.0    0.0
 114    0:30   34.9   107    1.9   135      5.3   999.0    0.00       0    999.0    0.0
 114    0:40   33.8   106    0.5    62      1.8   999.0    0.00       0    999.0    0.0
 114    0:50   33.1   107    0.0     0      0.0   999.0    0.00       0    999.0    0.0
 114    1:00   33.0   108    0.0     0      0.0   999.0    0.00       0    999.0    0.0
 114    1:10   33.0   108    2.0    55      5.5   999.0    0.00       0    999.0    0.0
 114    1:20   32.8   109    2.4    91      4.5   999.0    0.00       0    999.0    0.0
 114    1:30   32.4   109    3.1   165      7.9   999.0    0.00       0    999.0   83.9
 114    1:40   32.0   109    1.9   173      8.3   999.0    0.00       0    999.0   83.9
 114    1:50   32.0   110    0.0     0      0.0   999.0    0.00       0    999.0   83.9
 114    2:00   32.1   110    0.0     0      0.0   999.0    0.00       0    999.0   83.9
 114    2:10   32.0   110    0.0     0      0.0   999.0    0.00       0    999.0   83.9
 114    2:20   32.0   110    0.0     0      0.0   999.0    0.00       0    999.0   83.9
 114    2:30   32.0   110    0.0     0      0.0   999.0    0.00       0    999.0   83.9
 114    2:40   32.1   110    0.0     0      0.0   999.0    0.00       0    999.0   83.9
 114    2:50   32.1   111    0.0     0      0.0   999.0    0.00       0    999.0   83.9
 114    3:00   32.0   111    0.0     0      0.0   999.0    0.00       0    999.0   83.9
 114    3:10   32.0   111    0.0     0      0.0   999.0    0.00       0    999.0   83.9
 114    3:20   32.0   111    0.0     0      0.0   999.0    0.00       0    999.0   83.9
 114    3:30   31.9   111    0.0     0      0.0   999.0    0.00       0    999.0   83.9
 114    3:40   31.9   111    0.0     0      0.0   999.0    0.00       0    999.0   83.9
 114    3:50   32.0   111    0.0     0      0.0   999.0    0.00       0    999.0   83.9
 114    4:00   32.0   111    0.0     0      0.0   999.0    0.00       0    999.0   83.9
 114    4:10   32.1   111    0.0     0      0.0   999.0    0.00       0    999.0   83.9
 114    4:20   32.2   112    0.0     0      0.0   999.0    0.00       0    999.0   83.9
 114    4:30   32.5   112    1.5   107      8.1   999.0    0.00       0    999.0   83.9
 114    4:40   32.8   112    2.0    79      4.6   999.0    0.00       0    999.0   83.9
 114    4:50   32.9   112    2.2    79      4.5   999.0    0.00       0    999.0   83.9
 114    5:00   33.0   112    2.0    70      4.9   999.0    0.00       0    999.0   83.9
 114    5:10   33.3   112    3.2    83      6.0   999.0    0.00       0    999.0   83.9
 114    5:20   33.7   112    5.2   132     11.8   999.0    0.00       0    999.0   83.9
 114    5:30   33.8   112    5.8   123     12.1   999.0    0.00       2    999.0   83.9
 114    5:40   33.9   112    4.7   112      8.2   999.0    0.00       7    999.0   83.9
 114    5:50   34.0   112    5.8   100      9.1   999.0    0.00       7    999.0   83.9
 114    6:00   34.0   112    4.2    89      8.3   999.0    0.00      13    999.0   83.9
 114    6:10   34.0   111    3.5    84      6.1   999.0    0.00      12    999.0   83.9
 114    6:20   34.4   109    3.6   108      7.5   999.0    0.00      30    999.0   83.9
 114    6:30   34.6   105    2.7    97      8.4   999.0    0.00      25    999.0   83.9
 114    6:40   34.5   103    3.4   123      8.9   999.0    0.00      19    999.0   83.9
 114    6:50   34.3   104    4.8   113      9.0   999.0    0.00      22    999.0   83.9
 114    7:00   34.2   107    2.6    93      5.4   999.0    0.00      37    999.0    0.0
 114    7:10   34.2   108    2.9    69      6.6   999.0    0.00      31    999.0    0.0
 114    7:20   34.4   109    3.0    73      6.0   999.0    0.00      67    999.0   83.9
 114    7:30   34.7   109    3.0    74      5.3   999.0    0.00      91    999.0   83.9
 114    7:40   34.9   108    3.2    68      6.5   999.0    0.00      89    999.0   83.9
 114    7:50   35.1   105    4.3    95      7.8   999.0    0.00      79    999.0    0.0
 114    8:00   35.4    99    4.3    96      7.2   999.0    0.00     110    999.0    0.0
 114    8:10   35.7   103    3.9    87      8.6   999.0    0.00     139    999.0    0.0
 114    8:20   36.2   100    4.3   105      9.8   999.0    0.00     115    999.0    0.0
 114    8:30   36.4    94    5.0   117     11.6   999.0    0.00      97    999.0    0.0
 114    8:40   36.1    97    4.3   118      9.9   999.0    0.00      74    999.0    0.0
 114    8:50   35.5    98    6.5   114     12.1   999.0    0.00      74    999.0   83.9
 114    9:00   35.2   104    5.8   118     11.0   999.0    0.00     173    999.0   83.9
 114    9:10   36.2   100    5.6   104     11.3   999.0    0.00     278    999.0    0.0
 114    9:20   36.8    87    7.0   118     15.5   999.0    0.00     252    999.0    0.0
 114    9:30   36.7    85    6.3   108     13.4   999.0    0.00     196    999.0    0.0
 114    9:40   36.9    84    6.0   109     11.6   999.0    0.00     184    999.0    0.0
 114    9:50   36.3    86    6.7   110     14.6   999.0    0.00     269    999.0    0.0
 114   10:00   37.1    85    7.2   121     15.9   999.0    0.00     377    999.0    0.0
 114   10:10   37.5    82    6.2   116     12.2   999.0    0.00     340    999.0    0.0
 114   10:20   38.1    79    7.8   115     14.1   999.0    0.00     809    999.0    0.0
 114   10:30   38.9    75    7.1   122     14.1   999.0    0.00     550    999.0    0.0
 114   10:40   38.6    76    6.4   121     14.7   999.0    0.00     580    999.0    0.0
 114   10:50   39.1    73    7.6   130     17.9   999.0    0.00     607    999.0    0.0
 114   11:00   39.3    70    8.6   126     16.4   999.0    0.00     653    999.0    0.0
 114   11:10   40.3    66    9.1   119     17.5   999.0    0.00     984    999.0    0.0
 114   11:20   40.7    63    8.3   118     17.3   999.0    0.00     968    999.0    0.0
 114   11:30   40.4    64    9.2   123     15.9   999.0    0.00     787    999.0    0.0
 114   11:40   40.2    66    7.7   122     15.9   999.0    0.00     796    999.0    0.0
 114   11:50   41.1    64    8.4   125     20.5   999.0    0.00     997    999.0    0.0
 114   12:00   41.1    62    9.0   121     18.7   999.0    0.00     863    999.0    0.0
 114   12:10   40.8    64    8.9   115     25.2   999.0    0.00     678    999.0    0.0
 114   12:20   41.5    68    8.9   124     20.6   999.0    0.00    1038    999.0    0.0
 114   12:30   41.3    66   10.2   118     17.9   999.0    0.00    1023    999.0    0.0
 114   12:40   41.7    67    8.6   120     20.0   999.0    0.00    1038    999.0    0.0
 114   12:50   41.7    66   10.0   120     23.4   999.0    0.00     987    999.0    0.0
 114   13:00   40.8    69    9.1   125     18.6   999.0    0.00     901    999.0    0.0
 114   13:10   41.2    66    9.0   106     15.8   999.0    0.00     865    999.0    0.0
 114   13:20   41.2    62   10.9   118     19.9   999.0    0.00     774    999.0    0.0
 114   13:30   40.7    62   11.4   120     19.0   999.0    0.00     575    999.0    0.0
 114   13:40   39.5    67   11.5   118     20.2   999.0    0.00     464    999.0    0.0
 114   13:50   39.4    68    9.0   114     16.2   999.0    0.00     351    999.0    0.0
 114   14:00   39.4    69    9.1   113     15.6   999.0    0.00     457    999.0    0.0
 114   14:10   38.8    69   10.1   129     18.9   999.0    0.00     206    999.0    0.0
 114   14:20   37.7    73    8.9   118     18.3   999.0    0.00     164    999.0    0.0
 114   14:30   38.1    77    9.8   128     15.9   999.0    0.00     604    999.0    0.0
 114   14:40   38.3    76    8.1   121     18.5   999.0    0.00     224    999.0    0.0
 114   14:50   37.1    82    8.0   108     15.0   999.0    0.00     173    999.0    0.0
 114   15:00   37.1    80    7.8   115     17.8   999.0    0.00     164    999.0    0.0
 114   15:10   38.7    70    8.6   112     16.7   999.0    0.00     350    999.0    0.0
 114   15:20   39.7    65   10.1   109     18.3   999.0    0.00     693    999.0    0.0
 114   15:30   40.0    60   10.8   113     21.0   999.0    0.00     481    999.0    0.0
 114   15:40   40.1    60   10.8   115     23.1   999.0    0.00     509    999.0    0.0
 114   15:50   39.4    62   11.3   114     21.0   999.0    0.00     378    999.0    0.0
 114   16:00   39.5    62   11.0   120     21.6   999.0    0.00     574    999.0    0.0
 114   16:10   39.6    59   10.9   110     19.2   999.0    0.00     333    999.0    0.0
 114   16:20   38.8    63   11.1   120     22.0   999.0    0.00     248    999.0    0.0
 114   16:30   38.7    65    9.8   110     18.1   999.0    0.00     204    999.0    0.0
 114   16:40   38.3    66   10.1   116     17.7   999.0    0.00     224    999.0    0.0
 114   16:50   38.3    67   10.2   112     18.3   999.0    0.00     228    999.0    0.0
 114   17:00   37.9    68    9.1   117     16.6   999.0    0.00     162    999.0    0.0
 114   17:10   37.7    70    9.7   122     16.7   999.0    0.00     131    999.0    0.0
 114   17:20   37.9    70    8.0   118     16.3   999.0    0.00     147    999.0    0.0
 114   17:30   37.6    70    8.1   108     17.8   999.0    0.00      53    999.0    0.0
 114   17:40   37.2    69    7.9   108     15.7   999.0    0.00      52    999.0    0.0

Return to Incline Creek graphs page.


Western Regional Climate Center,wrcc@dri.edu